createdAt,value
2018-08-22T00:00:15.617Z,20.90
2018-08-22T00:02:43.553Z,20.90
2018-08-22T00:05:10.707Z,20.80
2018-08-22T00:07:37.863Z,20.70
2018-08-22T00:10:05.406Z,20.80
2018-08-22T00:12:32.549Z,20.80
2018-08-22T00:14:59.767Z,20.80
2018-08-22T00:17:26.999Z,20.70
2018-08-22T00:19:54.227Z,20.70
2018-08-22T00:22:21.423Z,20.70
2018-08-22T00:24:48.614Z,20.60
2018-08-22T00:27:15.846Z,20.60
2018-08-22T00:29:43.001Z,20.60
2018-08-22T00:32:10.214Z,20.60
2018-08-22T00:34:37.381Z,20.50
2018-08-22T00:37:04.887Z,20.50
2018-08-22T00:39:32.170Z,20.40
2018-08-22T00:41:59.491Z,20.40
2018-08-22T00:44:26.693Z,20.50
2018-08-22T00:46:53.833Z,20.40
2018-08-22T00:49:20.977Z,20.40
2018-08-22T00:51:48.174Z,20.50
2018-08-22T00:54:15.386Z,20.40
2018-08-22T00:56:42.578Z,20.40
2018-08-22T00:59:09.750Z,20.30
2018-08-22T01:01:36.914Z,20.40
2018-08-22T01:04:04.133Z,20.40
2018-08-22T01:06:31.389Z,20.30
2018-08-22T01:08:58.598Z,20.30
2018-08-22T01:11:25.771Z,20.30
2018-08-22T01:13:52.930Z,20.30
2018-08-22T01:16:20.110Z,20.20
2018-08-22T01:18:47.246Z,20.10
2018-08-22T01:21:14.400Z,20.10
2018-08-22T01:23:41.560Z,20.10
2018-08-22T01:26:08.735Z,20.10
2018-08-22T01:28:35.953Z,20.00
2018-08-22T01:31:03.843Z,20.00
2018-08-22T01:33:31.139Z,19.90
2018-08-22T01:35:58.483Z,20.00
2018-08-22T01:38:25.657Z,19.90
2018-08-22T01:40:52.836Z,19.90
2018-08-22T01:43:20.084Z,19.90
2018-08-22T01:45:47.218Z,19.80
2018-08-22T01:48:14.392Z,19.70
2018-08-22T01:50:41.587Z,19.70
2018-08-22T01:53:08.769Z,19.60
2018-08-22T01:55:36.760Z,19.60
2018-08-22T01:58:04.011Z,19.60
2018-08-22T02:00:31.224Z,19.60
2018-08-22T02:02:58.428Z,19.70
2018-08-22T02:05:25.631Z,19.70
2018-08-22T02:07:52.799Z,19.80
2018-08-22T02:10:19.982Z,19.80
2018-08-22T02:12:47.183Z,19.80
2018-08-22T02:15:14.327Z,19.70
2018-08-22T02:17:41.471Z,19.80
2018-08-22T02:20:08.628Z,19.80
2018-08-22T02:22:35.794Z,19.90
2018-08-22T02:25:03.044Z,19.90
2018-08-22T02:27:30.269Z,19.80
2018-08-22T02:29:57.460Z,19.80
2018-08-22T02:32:24.620Z,19.80
2018-08-22T02:34:51.774Z,19.80
2018-08-22T02:37:19.679Z,19.90
2018-08-22T02:39:46.885Z,19.90
2018-08-22T02:42:14.038Z,19.90
2018-08-22T02:44:41.214Z,19.80
2018-08-22T02:47:08.531Z,19.70
2018-08-22T02:49:35.699Z,19.70
2018-08-22T02:52:02.927Z,19.70
2018-08-22T02:54:30.187Z,19.70
2018-08-22T02:56:57.433Z,19.70
2018-08-22T02:59:24.617Z,19.60
2018-08-22T03:01:51.775Z,19.60
2018-08-22T03:04:18.922Z,19.50
2018-08-22T03:06:46.075Z,19.40
2018-08-22T03:09:13.223Z,19.40
2018-08-22T03:11:40.394Z,19.30
2018-08-22T03:14:07.551Z,19.30
2018-08-22T03:16:34.702Z,19.30
2018-08-22T03:19:01.874Z,19.40
2018-08-22T03:21:29.146Z,19.50
2018-08-22T03:23:56.270Z,19.50
2018-08-22T03:26:23.761Z,19.50
2018-08-22T03:28:51.014Z,19.50
2018-08-22T03:31:18.151Z,19.40
2018-08-22T03:33:45.319Z,19.40
2018-08-22T03:36:12.611Z,19.40
2018-08-22T03:38:39.844Z,19.30
2018-08-22T03:41:07.006Z,19.30
2018-08-22T03:43:34.187Z,19.20
2018-08-22T03:46:01.441Z,19.20
2018-08-22T03:48:28.678Z,19.10
2018-08-22T03:50:55.830Z,19.10
2018-08-22T03:53:23.009Z,19.10
2018-08-22T03:55:50.170Z,19.20
2018-08-22T03:58:17.407Z,19.10
2018-08-22T04:00:44.773Z,19.10
2018-08-22T04:03:11.924Z,19.20
2018-08-22T04:05:39.067Z,19.10
2018-08-22T04:08:06.207Z,19.10
2018-08-22T04:10:33.438Z,19.00
2018-08-22T04:13:00.694Z,19.00
2018-08-22T04:15:27.892Z,19.00
2018-08-22T04:17:55.035Z,19.00
2018-08-22T04:20:22.195Z,19.00
2018-08-22T04:22:49.353Z,19.00
2018-08-22T04:25:16.484Z,19.00
2018-08-22T04:27:43.758Z,19.00
2018-08-22T04:30:10.931Z,18.90
2018-08-22T04:32:38.081Z,18.90
2018-08-22T04:35:05.275Z,18.90
2018-08-22T04:37:32.559Z,18.90
2018-08-22T04:39:59.759Z,18.90
2018-08-22T04:42:27.023Z,19.00
2018-08-22T04:44:54.191Z,19.00
2018-08-22T04:47:21.591Z,19.10
2018-08-22T04:49:48.772Z,19.10
2018-08-22T04:52:15.952Z,19.10
2018-08-22T04:54:43.118Z,19.20
2018-08-22T04:57:10.286Z,19.30
2018-08-22T04:59:37.501Z,19.40
2018-08-22T05:02:04.659Z,19.40
2018-08-22T05:04:31.839Z,19.50
2018-08-22T05:06:59.037Z,19.60
2018-08-22T05:09:26.217Z,19.70
2018-08-22T05:11:53.371Z,19.90
2018-08-22T05:14:20.538Z,20.00
2018-08-22T05:16:47.706Z,20.10
2018-08-22T05:19:14.837Z,20.30
2018-08-22T05:21:41.985Z,20.70
2018-08-22T05:24:09.162Z,21.20
2018-08-22T05:26:36.338Z,21.40
2018-08-22T05:29:03.568Z,21.70
2018-08-22T05:31:30.770Z,22.20
2018-08-22T05:33:58.178Z,23.40
2018-08-22T05:36:25.372Z,23.90
2018-08-22T05:38:52.567Z,24.50
2018-08-22T05:41:19.707Z,25.40
2018-08-22T05:43:46.913Z,25.70
2018-08-22T05:46:14.099Z,25.90
2018-08-22T05:48:41.487Z,26.40
2018-08-22T05:51:08.842Z,26.80
2018-08-22T05:53:36.039Z,27.00
2018-08-22T05:56:03.295Z,27.70
2018-08-22T05:58:30.597Z,28.60
2018-08-22T06:00:57.860Z,29.60
2018-08-22T06:03:25.160Z,30.30
2018-08-22T06:05:52.242Z,30.70
2018-08-22T06:08:19.523Z,30.90
2018-08-22T06:10:46.703Z,31.70
2018-08-22T06:13:13.852Z,32.50
2018-08-22T06:15:41.081Z,33.10
2018-08-22T06:18:08.218Z,33.10
2018-08-22T06:20:35.365Z,33.60
2018-08-22T06:23:02.636Z,34.30
2018-08-22T06:25:29.989Z,35.10
2018-08-22T06:27:57.379Z,34.30
2018-08-22T06:30:24.537Z,34.40
2018-08-22T06:32:51.713Z,35.80
2018-08-22T06:35:18.864Z,36.20
2018-08-22T06:37:46.005Z,37.00
2018-08-22T06:40:13.142Z,36.60
2018-08-22T06:42:40.307Z,37.20
2018-08-22T06:45:08.184Z,37.80
2018-08-22T06:47:35.411Z,38.20
2018-08-22T06:50:02.724Z,38.70
2018-08-22T06:52:30.092Z,38.30
2018-08-22T06:54:57.260Z,38.90
2018-08-22T06:57:24.438Z,39.80
2018-08-22T06:59:51.636Z,37.80
2018-08-22T07:02:18.843Z,38.20
2018-08-22T07:04:46.244Z,39.10
2018-08-22T07:07:13.423Z,38.60
2018-08-22T07:09:40.603Z,39.00
2018-08-22T07:12:07.775Z,38.60
2018-08-22T07:14:34.958Z,37.60
2018-08-22T07:17:02.195Z,38.40
2018-08-22T07:19:29.424Z,39.30
2018-08-22T07:21:56.590Z,40.20
2018-08-22T07:24:23.750Z,40.50
2018-08-22T07:26:50.908Z,41.00
2018-08-22T07:29:18.176Z,40.00
2018-08-22T07:31:45.322Z,40.80
2018-08-22T07:34:12.508Z,41.50
2018-08-22T07:36:39.688Z,42.10
2018-08-22T07:39:08.940Z,42.10
2018-08-22T07:41:36.204Z,41.30
2018-08-22T07:44:03.469Z,41.10
2018-08-22T07:46:30.765Z,41.40
2018-08-22T07:48:57.947Z,41.90
2018-08-22T07:51:25.274Z,42.10
2018-08-22T07:53:52.418Z,42.30
2018-08-22T07:56:19.621Z,41.30
2018-08-22T07:58:51.779Z,42.00
2018-08-22T08:01:19.100Z,41.60
2018-08-22T08:03:46.299Z,41.30
2018-08-22T08:06:13.435Z,41.40
2018-08-22T08:08:40.665Z,41.30
2018-08-22T08:11:07.771Z,43.00
2018-08-22T08:13:34.917Z,43.80
2018-08-22T08:16:02.083Z,44.00
2018-08-22T08:18:29.355Z,44.10
2018-08-22T08:20:56.486Z,43.80
2018-08-22T08:23:23.639Z,43.90
2018-08-22T08:25:50.811Z,44.30
2018-08-22T08:28:17.960Z,44.40
2018-08-22T08:30:45.173Z,45.20
2018-08-22T08:33:12.407Z,45.10
2018-08-22T08:35:39.572Z,43.10
2018-08-22T08:38:06.769Z,42.30
2018-08-22T08:40:33.911Z,42.10
2018-08-22T08:43:02.014Z,42.90
2018-08-22T08:45:29.304Z,43.60
2018-08-22T08:47:56.454Z,44.00
2018-08-22T08:50:23.690Z,43.80
2018-08-22T08:52:50.921Z,44.30
2018-08-22T08:55:18.125Z,43.90
2018-08-22T08:57:45.300Z,43.90
2018-08-22T09:00:12.461Z,43.90
2018-08-22T09:02:39.617Z,42.30
2018-08-22T09:05:06.832Z,40.50
2018-08-22T09:07:34.059Z,41.90
2018-08-22T09:10:01.330Z,42.00
2018-08-22T09:12:28.546Z,41.30
2018-08-22T09:17:22.813Z,40.20
2018-08-22T09:19:49.975Z,39.50
2018-08-22T09:22:17.643Z,38.20
2018-08-22T09:24:44.789Z,36.40
2018-08-22T09:27:11.973Z,34.40
2018-08-22T09:29:39.187Z,33.60
2018-08-22T09:32:06.254Z,33.30
2018-08-22T09:34:33.543Z,33.00
2018-08-22T09:37:00.757Z,32.60
2018-08-22T09:39:27.978Z,32.40
2018-08-22T09:41:55.271Z,32.10
2018-08-22T09:44:22.568Z,31.90
2018-08-22T09:46:49.748Z,31.70
2018-08-22T09:49:16.905Z,31.10
2018-08-22T09:51:44.107Z,30.90
2018-08-22T09:54:11.291Z,30.90
2018-08-22T09:56:38.460Z,30.70
2018-08-22T09:59:05.640Z,30.60
2018-08-22T10:01:38.723Z,30.60
2018-08-22T10:04:05.857Z,30.60
2018-08-22T10:06:36.911Z,30.60
2018-08-22T10:09:10.691Z,30.50
2018-08-22T10:11:37.847Z,30.50
2018-08-22T10:14:05.121Z,30.30
2018-08-22T10:16:32.355Z,30.30
2018-08-22T10:18:59.764Z,30.20
2018-08-22T10:21:27.159Z,30.20
2018-08-22T10:23:54.342Z,30.20
2018-08-22T10:26:21.643Z,29.70
2018-08-22T10:28:49.022Z,29.70
2018-08-22T10:31:16.232Z,29.80
2018-08-22T10:33:43.464Z,30.00
2018-08-22T10:36:10.646Z,30.00
2018-08-22T10:38:37.899Z,30.00
2018-08-22T10:41:05.106Z,29.90
2018-08-22T10:43:32.315Z,29.90
2018-08-22T10:45:59.535Z,29.90
2018-08-22T10:48:27.425Z,29.90
2018-08-22T10:50:54.598Z,30.00
2018-08-22T10:53:21.765Z,30.00
2018-08-22T10:55:48.905Z,29.90
2018-08-22T10:58:16.059Z,30.00
2018-08-22T11:00:43.475Z,30.10
2018-08-22T11:03:10.643Z,30.10
2018-08-22T11:05:37.770Z,30.00
2018-08-22T11:08:05.807Z,30.10
2018-08-22T11:10:33.012Z,30.10
2018-08-22T11:13:00.242Z,30.10
2018-08-22T11:15:27.797Z,30.10
2018-08-22T11:17:55.035Z,30.20
2018-08-22T11:20:22.194Z,30.20
2018-08-22T11:23:01.023Z,30.20
2018-08-22T11:25:39.891Z,30.10
2018-08-22T11:28:18.575Z,30.10
2018-08-22T11:30:57.793Z,29.80
2018-08-22T11:33:36.626Z,29.80
2018-08-22T11:36:02.961Z,29.60
2018-08-22T11:38:30.363Z,29.70
2018-08-22T11:40:57.584Z,29.90
2018-08-22T11:43:24.798Z,30.00
2018-08-22T11:45:52.350Z,30.10
2018-08-22T11:48:19.543Z,30.20
2018-08-22T11:50:46.698Z,30.30
2018-08-22T11:53:13.966Z,30.30
2018-08-22T11:55:41.294Z,30.30
2018-08-22T11:58:08.583Z,30.20
2018-08-22T12:00:35.959Z,30.30
2018-08-22T12:03:03.106Z,30.10
2018-08-22T12:05:30.258Z,30.10
2018-08-22T12:07:57.396Z,30.00
2018-08-22T12:10:29.196Z,30.00
2018-08-22T12:12:56.278Z,30.00
2018-08-22T12:15:23.411Z,30.00
2018-08-22T12:17:50.667Z,30.10
2018-08-22T12:20:17.856Z,30.00
2018-08-22T12:22:45.016Z,29.90
2018-08-22T12:25:12.265Z,30.00
2018-08-22T12:27:39.436Z,30.10
2018-08-22T12:30:06.752Z,30.10
2018-08-22T12:32:34.378Z,30.20
2018-08-22T12:35:01.532Z,30.30
2018-08-22T12:37:28.667Z,30.30
2018-08-22T12:39:55.791Z,30.20
2018-08-22T12:42:22.907Z,30.10
2018-08-22T12:44:50.049Z,30.30
2018-08-22T12:47:17.223Z,30.30
2018-08-22T12:49:44.427Z,30.30
2018-08-22T12:52:11.591Z,30.30
2018-08-22T12:54:38.918Z,30.30
2018-08-22T12:57:06.285Z,30.30
2018-08-22T12:59:33.383Z,30.30
2018-08-22T13:02:00.671Z,30.30
2018-08-22T13:04:27.792Z,30.30
2018-08-22T13:06:54.929Z,30.30
2018-08-22T13:09:22.082Z,30.40
2018-08-22T13:11:49.243Z,30.50
2018-08-22T13:14:16.375Z,30.50
2018-08-22T13:16:43.507Z,30.50
2018-08-22T13:19:10.885Z,30.40
2018-08-22T13:21:38.059Z,30.50
2018-08-22T13:24:05.369Z,30.50
2018-08-22T13:26:32.448Z,30.60
2018-08-22T13:28:59.591Z,30.70
2018-08-22T13:31:26.726Z,30.70
2018-08-22T13:33:53.855Z,30.60
2018-08-22T13:36:21.079Z,30.70
2018-08-22T13:38:48.184Z,30.70
2018-08-22T13:41:15.306Z,30.60
2018-08-22T13:43:42.602Z,30.70
2018-08-22T13:46:09.787Z,30.60
2018-08-22T13:48:36.977Z,30.70
2018-08-22T13:51:04.180Z,30.70
2018-08-22T13:53:31.337Z,30.80
2018-08-22T13:55:58.472Z,30.80
2018-08-22T13:58:25.599Z,30.80
2018-08-22T14:00:53.197Z,30.80
2018-08-22T14:03:20.475Z,30.80
2018-08-22T14:05:47.687Z,30.90
2018-08-22T14:08:15.030Z,30.90
2018-08-22T14:10:42.371Z,30.90
2018-08-22T14:13:09.649Z,30.90
2018-08-22T14:15:37.051Z,30.90
2018-08-22T14:18:04.347Z,30.90
2018-08-22T14:20:31.479Z,30.90
2018-08-22T14:22:58.643Z,30.90
2018-08-22T14:25:25.968Z,30.90
2018-08-22T14:27:53.200Z,30.90
2018-08-22T14:30:20.371Z,30.90
2018-08-22T14:32:47.566Z,30.90
2018-08-22T14:35:14.721Z,31.00
2018-08-22T14:37:41.981Z,30.90
2018-08-22T14:40:09.330Z,31.00
2018-08-22T14:42:36.570Z,31.00
2018-08-22T14:45:04.517Z,31.00
2018-08-22T14:47:31.687Z,31.00
2018-08-22T14:49:58.927Z,31.00
2018-08-22T14:52:26.060Z,30.90
2018-08-22T14:54:53.239Z,31.00
2018-08-22T14:57:20.403Z,31.00
2018-08-22T14:59:47.532Z,30.90
2018-08-22T15:02:16.111Z,30.90
2018-08-22T15:04:43.264Z,31.00
2018-08-22T15:07:10.551Z,30.90
2018-08-22T15:09:37.885Z,30.90
2018-08-22T15:12:05.166Z,30.90
2018-08-22T15:14:32.323Z,30.90
2018-08-22T15:16:59.561Z,31.00
2018-08-22T15:19:26.708Z,31.00
2018-08-22T15:21:53.862Z,30.90
2018-08-22T15:24:21.043Z,30.90
2018-08-22T15:26:48.243Z,30.90
2018-08-22T15:29:15.413Z,30.90
2018-08-22T15:34:44.687Z,30.90
2018-08-22T15:37:11.872Z,30.90
2018-08-22T15:39:39.179Z,30.90
2018-08-22T15:42:06.449Z,30.90
2018-08-22T15:44:33.681Z,30.90
2018-08-22T15:47:00.884Z,30.80
2018-08-22T15:49:28.012Z,30.80
2018-08-22T15:51:55.147Z,30.70
2018-08-22T15:54:22.326Z,30.70
2018-08-22T15:56:49.479Z,30.60
2018-08-22T15:59:17.549Z,30.70
2018-08-22T16:01:44.814Z,30.70
2018-08-22T16:04:11.970Z,30.70
2018-08-22T16:06:39.367Z,30.70
2018-08-22T16:09:14.513Z,30.60
2018-08-22T16:11:41.794Z,30.50
2018-08-22T16:14:09.260Z,30.40
2018-08-22T16:16:36.431Z,30.40
2018-08-22T16:19:03.851Z,30.50
2018-08-22T16:21:31.155Z,30.50
2018-08-22T16:23:58.346Z,30.60
2018-08-22T16:26:25.540Z,30.60
2018-08-22T16:28:57.129Z,30.60
2018-08-22T16:31:29.486Z,30.80
2018-08-22T16:33:56.661Z,30.90
2018-08-22T16:36:27.887Z,31.00
2018-08-22T16:41:28.878Z,30.90
2018-08-22T16:43:56.030Z,30.80
2018-08-22T16:46:23.254Z,30.50
2018-08-22T16:48:51.895Z,30.20
2018-08-22T16:51:20.257Z,30.10
2018-08-22T16:54:00.072Z,30.00
2018-08-22T16:56:27.929Z,30.00
2018-08-22T16:59:01.697Z,29.80
2018-08-22T17:01:29.440Z,29.70
2018-08-22T17:03:56.585Z,29.70
2018-08-22T17:06:26.000Z,29.80
2018-08-22T17:08:53.848Z,29.70
2018-08-22T17:11:20.970Z,29.60
2018-08-22T17:13:50.079Z,29.60
2018-08-22T17:16:17.246Z,29.50
2018-08-22T17:18:44.379Z,29.30
2018-08-22T17:21:11.514Z,29.30
2018-08-22T17:23:39.009Z,29.30
2018-08-22T17:26:10.174Z,29.40
2018-08-22T17:28:39.262Z,29.50
2018-08-22T17:31:06.726Z,29.60
2018-08-22T17:33:36.498Z,29.60
2018-08-22T17:36:03.647Z,29.60
2018-08-22T17:38:30.829Z,29.60
2018-08-22T17:40:57.958Z,29.60
2018-08-22T17:43:25.070Z,29.60
2018-08-22T17:45:52.271Z,29.50
2018-08-22T17:48:20.868Z,29.50
2018-08-22T17:50:48.198Z,29.40
2018-08-22T17:53:15.303Z,29.30
2018-08-22T17:55:42.451Z,29.10
2018-08-22T17:58:09.591Z,29.00
2018-08-22T18:00:37.739Z,28.90
2018-08-22T18:03:05.203Z,28.80
2018-08-22T18:05:33.682Z,28.70
2018-08-22T18:08:03.255Z,28.50
2018-08-22T18:10:32.386Z,28.40
2018-08-22T18:13:07.240Z,28.30
2018-08-22T18:15:34.432Z,28.20
2018-08-22T18:18:01.581Z,28.10
2018-08-22T18:20:28.854Z,28.00
2018-08-22T18:22:55.967Z,27.80
2018-08-22T18:25:23.100Z,27.60
2018-08-22T18:27:54.851Z,27.50
2018-08-22T18:32:55.887Z,27.20
2018-08-22T18:35:23.000Z,27.10
2018-08-22T18:37:50.157Z,27.00
2018-08-22T18:40:22.130Z,26.90
2018-08-22T18:42:51.671Z,26.90
2018-08-22T18:45:19.515Z,27.10
2018-08-22T18:47:46.667Z,27.00
2018-08-22T18:50:13.804Z,27.00
2018-08-22T18:52:40.918Z,26.90
2018-08-22T18:55:08.107Z,26.80
2018-08-22T18:57:35.410Z,26.70
2018-08-22T19:00:05.060Z,26.50
2018-08-22T19:02:32.428Z,26.40
2018-08-22T19:05:16.692Z,26.30
2018-08-22T19:07:55.551Z,26.30
2018-08-22T19:10:23.043Z,26.10
2018-08-22T19:12:51.405Z,25.90
2018-08-22T19:15:18.547Z,25.90
2018-08-22T19:17:45.692Z,25.80
2018-08-22T19:20:12.822Z,25.80
2018-08-22T19:22:39.922Z,25.80
2018-08-22T19:25:07.165Z,25.70
2018-08-22T19:27:34.338Z,25.60
2018-08-22T19:30:03.470Z,25.60
2018-08-22T19:32:33.091Z,25.40
2018-08-22T19:35:00.427Z,25.40
2018-08-22T19:37:27.544Z,25.40
2018-08-22T19:40:06.895Z,25.30
2018-08-22T19:42:35.453Z,25.20
2018-08-22T19:45:05.237Z,25.10
2018-08-22T19:47:32.419Z,25.10
2018-08-22T19:50:01.406Z,25.10
2018-08-22T19:52:29.274Z,25.00
2018-08-22T19:54:56.419Z,25.00
2018-08-22T19:57:28.841Z,24.90
2018-08-22T19:59:55.984Z,24.90
2018-08-22T20:02:30.240Z,25.00
2018-08-22T20:04:57.378Z,25.10
2018-08-22T20:07:24.876Z,25.10
2018-08-22T20:09:53.492Z,25.20
2018-08-22T20:12:20.747Z,25.30
2018-08-22T20:14:50.106Z,25.40
2018-08-22T20:17:22.943Z,25.40
2018-08-22T20:19:50.056Z,25.50
2018-08-22T20:22:21.174Z,25.50
2018-08-22T20:24:48.294Z,25.60
2018-08-22T20:27:15.418Z,25.40
2018-08-22T20:29:42.528Z,25.40
2018-08-22T20:32:14.294Z,25.50
2018-08-22T20:34:42.124Z,25.40
2018-08-22T20:37:11.043Z,25.50
2018-08-22T20:39:38.221Z,25.30
2018-08-22T20:42:09.307Z,25.50
2018-08-22T20:44:38.847Z,25.50
2018-08-22T20:47:06.097Z,25.50
2018-08-22T20:49:33.265Z,25.50
2018-08-22T20:52:00.403Z,25.50
2018-08-22T20:54:27.595Z,25.50
2018-08-22T20:56:59.115Z,25.70
2018-08-22T20:59:26.229Z,25.60
2018-08-22T21:02:03.179Z,25.60
2018-08-22T21:04:30.320Z,25.50
2018-08-22T21:06:57.591Z,25.30
2018-08-22T21:09:24.877Z,25.20
2018-08-22T21:11:55.194Z,25.20
2018-08-22T21:14:22.527Z,25.10
2018-08-22T21:16:49.651Z,25.20
2018-08-22T21:19:16.786Z,25.30
2018-08-22T21:21:43.903Z,25.30
2018-08-22T21:24:11.054Z,25.30
2018-08-22T21:26:40.072Z,25.20
2018-08-22T21:29:07.307Z,25.30
2018-08-22T21:31:34.984Z,25.30
2018-08-22T21:34:12.632Z,25.30
2018-08-22T21:36:41.510Z,25.20
2018-08-22T21:39:14.418Z,25.10
2018-08-22T21:41:43.208Z,25.10
2018-08-22T21:44:12.326Z,25.00
2018-08-22T21:46:39.626Z,25.00
2018-08-22T21:49:12.967Z,24.90
2018-08-22T21:51:40.544Z,24.90
2018-08-22T21:54:08.541Z,24.90
2018-08-22T21:56:35.754Z,24.90
2018-08-22T21:59:02.922Z,24.90
2018-08-22T22:02:05.443Z,24.80
2018-08-22T22:04:33.639Z,24.90
2018-08-22T22:07:01.092Z,24.90
2018-08-22T22:09:28.225Z,24.80
2018-08-22T22:11:58.389Z,24.70
2018-08-22T22:14:26.589Z,24.60
2018-08-22T22:16:56.709Z,24.60
2018-08-22T22:19:24.863Z,24.60
2018-08-22T22:21:52.114Z,24.60
2018-08-22T22:24:19.307Z,24.50
2018-08-22T22:26:46.475Z,24.50
2018-08-22T22:29:13.618Z,24.40
2018-08-22T22:31:40.843Z,24.40
2018-08-22T22:34:09.457Z,24.30
2018-08-22T22:36:36.740Z,24.20
2018-08-22T22:40:09.480Z,24.20
2018-08-22T22:42:36.745Z,24.20
2018-08-22T22:45:03.997Z,24.20
2018-08-22T22:47:32.362Z,24.20
2018-08-22T22:50:00.191Z,24.20
2018-08-22T22:52:32.368Z,24.20
2018-08-22T22:55:00.695Z,24.20
2018-08-22T22:57:29.108Z,24.10
2018-08-22T22:59:57.386Z,24.10
2018-08-22T23:02:25.410Z,24.00
2018-08-22T23:04:53.402Z,24.00
2018-08-22T23:07:30.071Z,23.90
2018-08-22T23:09:59.619Z,23.90
2018-08-22T23:12:33.290Z,23.90
2018-08-22T23:15:00.431Z,23.80
2018-08-22T23:17:27.589Z,23.80
2018-08-22T23:20:40.602Z,23.80
2018-08-22T23:23:25.336Z,23.80
2018-08-22T23:25:52.938Z,23.70
2018-08-22T23:28:20.202Z,23.70
2018-08-22T23:30:47.381Z,23.70
2018-08-22T23:33:14.478Z,23.70
2018-08-22T23:35:41.608Z,23.60
2018-08-22T23:38:16.232Z,23.50
2018-08-22T23:40:44.584Z,23.60
2018-08-22T23:43:11.720Z,23.50
2018-08-22T23:45:39.242Z,23.40
2018-08-22T23:48:06.407Z,23.40
2018-08-22T23:50:54.383Z,23.40
2018-08-22T23:53:22.434Z,23.40
2018-08-22T23:55:50.073Z,23.30
2018-08-22T23:58:17.538Z,23.30
